The Dalles, OR (97058)

12:36 PM PDT on May 25, 2015 (GMT -0700)
17th and Jefferson ST | | Change Station
CLOSE
Current Station
Personal Weather Station
Location: The Dalles, OR
Elevation: 486 ft
Nearby Weather Stations

Elev 486 ft 45.59 °N, 121.19 °W | Updated 1 second ago

Clear
Clear
71.6 °F
Feels Like 77 °F
N
7.3
Wind Variable Wind from WNW
Gusts 17.3 mph

Today
High -- | Low -- °F
--% Chance of Precip.
Yesterday
High -- | Low -- °F
Precip. -- in
5:24 AM 8:39 PM
Waxing Crescent, 51% visible
Pressure 29.90 in
Visibility 10.0 miles
Clouds Clear
Heat Index 77 °F
Dew Point 48 °F
Humidity 44%
Rainfall 0.00 in
Snow Depth Not available.
UV 6.1 out of 12
Pollen 7.30 out of 12
Air Quality Not available.
Flu Activity No Activity
METAR KDLS 251853Z AUTO 33018G24KT 10SM CLR 21/08 A2990 RMK AO2 PK WND 35026/1809 SLP125 T02060078

More Conditions Fewer Conditions

Pressure 29.90 in
Visibility 10.0 miles
Clouds Clear
Heat Index 77 °F
Dew Point 48 °F
Humidity 44%
Rainfall 0.00 in
Snow Depth Not available.
UV 6.1 out of 12
Pollen 7.30 out of 12
Air Quality Not available.
Flu Activity No Activity
METAR KDLS 251853Z AUTO 33018G24KT 10SM CLR 21/08 A2990 RMK AO2 PK WND 35026/1809 SLP125 T02060078

More Conditions Fewer Conditions

10-Day Weather Forecast

Almanac

Astronomy

May. 25, 2015 Rise Set
Actual Time
Civil Twilight
Nautical Twilight
Astronomical Twilight
Moon
Length of Visible Light
Length of Day
Tomorrow will be .
, % of the Moon is Illuminated

Today's Extremes

State Highs State Lows

Community

WunderPhotos

Upload Photos

1,824,100 photos uploaded!

WunderBlogs® & News

Nearby

Air Quality

  Air Quality AQ Index Pollutant
Not available.

Snow Depth

Station Depth Elevation

Earthquake Activity

City Distance Mag. Time & Date
Minimum magnitude displayed is 2.5.

Coastal Water Temperatures

Place Temperature

Stations

Nearby Weather Stations

Station Location Temp. Windchill Dew Point Humidity Wind Precip. Elev Updated Type